createdAt,value
2023-03-30T00:01:15.049Z,11.94
2023-03-30T00:03:43.047Z,11.94
2023-03-30T00:06:10.785Z,11.94
2023-03-30T00:08:39.807Z,11.96
2023-03-30T00:11:09.119Z,11.96
2023-03-30T00:13:36.867Z,11.97
2023-03-30T00:16:05.339Z,11.95
2023-03-30T00:18:31.827Z,12.03
2023-03-30T00:20:58.751Z,12.04
2023-03-30T00:23:25.494Z,12.01
2023-03-30T00:25:51.968Z,12.07
2023-03-30T00:28:18.422Z,12.13
2023-03-30T00:30:45.035Z,12.14
2023-03-30T00:33:11.612Z,12.08
2023-03-30T00:35:38.306Z,12.08
2023-03-30T00:38:05.853Z,12.09
2023-03-30T00:40:34.785Z,12.08
2023-03-30T00:43:06.618Z,12.11
2023-03-30T00:45:35.158Z,12.17
2023-03-30T00:48:07.930Z,12.14
2023-03-30T00:50:44.928Z,12.03
2023-03-30T00:53:17.232Z,12.02
2023-03-30T00:55:46.268Z,12.10
2023-03-30T00:58:14.725Z,12.09
2023-03-30T01:00:47.269Z,12.10
2023-03-30T01:03:35.141Z,12.08
2023-03-30T01:06:04.825Z,12.13
2023-03-30T01:08:34.658Z,12.22
2023-03-30T01:11:02.929Z,12.26
2023-03-30T01:13:35.718Z,12.22
2023-03-30T01:16:39.660Z,12.19
2023-03-30T01:19:43.722Z,12.17
2023-03-30T01:22:22.073Z,12.27
2023-03-30T01:25:20.506Z,12.24
2023-03-30T01:28:05.800Z,12.26
2023-03-30T01:30:51.118Z,12.29
2023-03-30T01:34:02.563Z,12.18
2023-03-30T01:36:48.521Z,12.12
2023-03-30T01:39:24.282Z,12.04
2023-03-30T01:42:16.143Z,12.03
2023-03-30T01:44:54.805Z,12.04
2023-03-30T01:47:47.135Z,12.17
2023-03-30T01:50:36.786Z,12.07
2023-03-30T01:53:14.145Z,12.06
2023-03-30T01:55:58.154Z,12.22
2023-03-30T01:58:43.797Z,12.21
2023-03-30T02:01:14.390Z,12.24
2023-03-30T02:03:43.038Z,12.11
2023-03-30T02:06:15.300Z,12.13
2023-03-30T02:08:44.120Z,12.16
2023-03-30T02:11:11.471Z,12.16
2023-03-30T02:13:39.859Z,12.13
2023-03-30T02:16:18.509Z,12.07
2023-03-30T02:18:45.994Z,11.98
2023-03-30T02:21:13.070Z,11.92
2023-03-30T02:23:42.762Z,11.92
2023-03-30T02:26:10.545Z,11.93
2023-03-30T02:28:37.107Z,11.95
2023-03-30T02:31:04.992Z,11.91
2023-03-30T02:34:05.412Z,11.90
2023-03-30T02:36:37.494Z,11.89
2023-03-30T02:39:21.163Z,11.87
2023-03-30T02:42:05.132Z,11.91
2023-03-30T02:45:00.480Z,11.91
2023-03-30T02:47:59.802Z,11.88
2023-03-30T02:50:51.579Z,11.92
2023-03-30T02:53:27.924Z,11.95
2023-03-30T02:56:06.027Z,11.94
2023-03-30T02:58:45.538Z,11.96
2023-03-30T03:01:16.379Z,12.01
2023-03-30T03:03:46.393Z,11.98
2023-03-30T03:06:14.749Z,11.96
2023-03-30T03:08:44.182Z,12.04
2023-03-30T03:11:11.187Z,12.00
2023-03-30T03:13:38.819Z,11.98
2023-03-30T03:16:08.054Z,11.98
2023-03-30T03:18:39.914Z,12.02
2023-03-30T03:21:08.014Z,12.01
2023-03-30T03:23:36.086Z,12.01
2023-03-30T03:26:03.579Z,11.99
2023-03-30T03:28:30.426Z,11.96
2023-03-30T03:30:58.360Z,11.96
2023-03-30T03:33:25.762Z,12.03
2023-03-30T03:35:54.908Z,12.05
2023-03-30T03:38:22.131Z,12.08
2023-03-30T03:40:53.101Z,12.11
2023-03-30T03:43:19.733Z,12.13
2023-03-30T03:45:46.911Z,12.22
2023-03-30T03:48:15.381Z,12.26
2023-03-30T03:50:44.942Z,12.22
2023-03-30T03:53:12.594Z,12.25
2023-03-30T03:55:39.082Z,12.25
2023-03-30T03:58:07.366Z,12.29
2023-03-30T04:00:34.755Z,12.25
2023-03-30T04:03:01.435Z,12.34
2023-03-30T04:05:27.930Z,12.32
2023-03-30T04:07:56.412Z,12.28
2023-03-30T04:10:23.752Z,12.27
2023-03-30T04:12:50.416Z,12.24
2023-03-30T04:15:16.928Z,12.22
2023-03-30T04:17:47.262Z,12.27
2023-03-30T04:20:13.997Z,12.25
2023-03-30T04:22:43.068Z,12.27
2023-03-30T04:25:15.003Z,12.28
2023-03-30T04:27:45.077Z,12.31
2023-03-30T04:30:12.443Z,12.33
2023-03-30T04:32:39.174Z,12.36
2023-03-30T04:35:06.527Z,12.42
2023-03-30T04:37:33.211Z,12.45
2023-03-30T04:40:00.775Z,12.48
2023-03-30T04:42:34.378Z,12.50
2023-03-30T04:45:01.046Z,12.53
2023-03-30T04:47:28.806Z,12.52
2023-03-30T04:49:55.509Z,12.57
2023-03-30T04:52:22.154Z,12.68
2023-03-30T04:54:48.912Z,12.68
2023-03-30T04:57:16.152Z,12.67
2023-03-30T04:59:43.775Z,12.72
2023-03-30T05:02:15.971Z,12.75
2023-03-30T05:04:43.309Z,12.78
2023-03-30T05:07:09.887Z,12.81
2023-03-30T05:09:36.413Z,12.75
2023-03-30T05:12:04.648Z,12.74
2023-03-30T05:14:31.262Z,12.74
2023-03-30T05:16:58.724Z,12.78
2023-03-30T05:19:25.469Z,12.78
2023-03-30T05:21:51.974Z,12.83
2023-03-30T05:24:18.434Z,12.81
2023-03-30T05:26:45.061Z,12.87
2023-03-30T05:29:11.507Z,12.87
2023-03-30T05:31:38.195Z,12.86
2023-03-30T05:34:04.700Z,12.88
2023-03-30T05:36:31.980Z,12.89
2023-03-30T05:38:58.612Z,12.85
2023-03-30T05:41:27.625Z,12.84
2023-03-30T05:43:54.465Z,12.84
2023-03-30T05:46:21.488Z,12.86
2023-03-30T05:48:48.045Z,12.89
2023-03-30T05:51:14.466Z,12.87
2023-03-30T05:53:41.147Z,12.89
2023-03-30T05:56:08.052Z,12.94
2023-03-30T05:58:34.606Z,13.00
2023-03-30T06:01:01.081Z,12.98
2023-03-30T06:03:31.469Z,12.97
2023-03-30T06:05:58.584Z,13.02
2023-03-30T06:08:27.028Z,13.09
2023-03-30T06:10:57.148Z,13.23
2023-03-30T06:13:24.152Z,13.26
2023-03-30T06:15:51.385Z,13.23
2023-03-30T06:18:18.136Z,13.24
2023-03-30T06:20:48.707Z,13.34
2023-03-30T06:23:16.442Z,13.48
2023-03-30T06:25:46.588Z,13.47
2023-03-30T06:28:13.158Z,13.46
2023-03-30T06:30:39.699Z,13.42
2023-03-30T06:33:06.385Z,13.34
2023-03-30T06:35:32.963Z,13.35
2023-03-30T06:37:59.525Z,13.38
2023-03-30T06:40:26.120Z,13.53
2023-03-30T06:42:52.779Z,13.69
2023-03-30T06:45:19.339Z,13.92
2023-03-30T06:47:46.216Z,14.25
2023-03-30T06:50:13.389Z,14.44
2023-03-30T06:52:39.980Z,14.59
2023-03-30T06:55:10.638Z,14.74
2023-03-30T06:57:37.188Z,14.85
2023-03-30T07:00:13.526Z,14.81
2023-03-30T07:02:41.260Z,14.79
2023-03-30T07:05:08.448Z,14.81
2023-03-30T07:07:36.066Z,14.75
2023-03-30T07:10:10.531Z,14.76
2023-03-30T07:12:38.109Z,14.79
2023-03-30T07:15:07.179Z,14.72
2023-03-30T07:17:34.648Z,14.72
2023-03-30T07:20:01.920Z,14.69
2023-03-30T07:22:28.675Z,14.53
2023-03-30T07:24:55.552Z,14.46
2023-03-30T07:27:25.491Z,14.46
2023-03-30T07:29:53.081Z,14.39
2023-03-30T07:32:20.957Z,14.27
2023-03-30T07:34:47.519Z,14.23
2023-03-30T07:37:20.331Z,14.19
2023-03-30T07:39:47.867Z,14.18
2023-03-30T07:42:14.482Z,14.14
2023-03-30T07:44:41.122Z,14.07
2023-03-30T07:47:07.825Z,14.04
2023-03-30T07:49:34.385Z,14.02
2023-03-30T07:52:01.418Z,13.98
2023-03-30T07:54:29.118Z,13.95
2023-03-30T07:56:55.624Z,13.94
2023-03-30T07:59:23.943Z,13.94
2023-03-30T08:01:52.009Z,14.00
2023-03-30T08:04:19.053Z,14.01
2023-03-30T08:06:48.383Z,13.98
2023-03-30T08:09:18.260Z,14.00
2023-03-30T08:11:45.343Z,14.07
2023-03-30T08:14:11.901Z,14.09
2023-03-30T08:16:38.423Z,14.12
2023-03-30T08:19:09.175Z,14.13
2023-03-30T08:21:35.916Z,14.21
2023-03-30T08:24:02.429Z,14.27
2023-03-30T08:26:29.014Z,14.38
2023-03-30T08:28:55.454Z,14.64
2023-03-30T08:31:22.023Z,14.88
2023-03-30T08:33:49.307Z,14.80
2023-03-30T08:36:16.242Z,14.82
2023-03-30T08:38:45.175Z,14.95
2023-03-30T08:41:29.833Z,15.05
2023-03-30T08:44:03.455Z,15.26
2023-03-30T08:46:31.230Z,15.26
2023-03-30T08:49:02.533Z,15.13
2023-03-30T08:51:31.118Z,15.08
2023-03-30T08:54:01.581Z,15.07
2023-03-30T08:56:39.728Z,15.05
2023-03-30T08:59:27.794Z,15.06
2023-03-30T09:01:56.878Z,14.98
2023-03-30T09:04:35.528Z,14.98
2023-03-30T09:07:20.357Z,15.15
2023-03-30T09:09:49.467Z,15.02
2023-03-30T09:12:38.090Z,15.03
2023-03-30T09:15:13.351Z,15.10
2023-03-30T09:17:47.186Z,15.48
2023-03-30T09:20:25.822Z,15.72
2023-03-30T09:22:54.063Z,15.32
2023-03-30T09:25:40.752Z,15.19
2023-03-30T09:28:27.057Z,15.57
2023-03-30T09:31:01.297Z,15.82
2023-03-30T09:33:41.630Z,15.90
2023-03-30T09:36:35.157Z,16.12
2023-03-30T09:39:01.714Z,16.34
2023-03-30T09:41:53.687Z,16.51
2023-03-30T09:44:30.131Z,16.54
2023-03-30T09:46:58.890Z,16.53
2023-03-30T09:49:38.242Z,16.59
2023-03-30T09:52:08.305Z,16.69
2023-03-30T09:54:40.920Z,16.83
2023-03-30T09:57:23.550Z,17.12
2023-03-30T09:59:50.326Z,17.10
2023-03-30T10:02:20.127Z,17.01
2023-03-30T10:04:52.973Z,17.08
2023-03-30T10:07:31.746Z,17.24
2023-03-30T10:10:13.150Z,17.32
2023-03-30T10:12:39.815Z,17.15
2023-03-30T10:15:07.828Z,17.20
2023-03-30T10:17:34.364Z,17.06
2023-03-30T10:20:20.719Z,16.81
2023-03-30T10:23:05.068Z,16.55
2023-03-30T10:25:33.725Z,16.56
2023-03-30T10:28:05.014Z,16.77
2023-03-30T10:30:33.322Z,17.04
2023-03-30T10:33:02.442Z,17.34
2023-03-30T10:35:37.763Z,17.65
2023-03-30T10:38:08.028Z,17.52
2023-03-30T10:40:39.374Z,17.39
2023-03-30T10:43:14.508Z,17.24
2023-03-30T10:45:46.849Z,17.17
2023-03-30T10:48:13.460Z,17.04
2023-03-30T10:50:41.754Z,16.90
2023-03-30T10:53:30.688Z,16.91
2023-03-30T10:56:07.018Z,16.77
2023-03-30T10:58:59.765Z,16.61
2023-03-30T11:01:41.853Z,16.82
2023-03-30T11:04:23.774Z,17.04
2023-03-30T11:06:54.565Z,17.13
2023-03-30T11:09:35.155Z,17.17
2023-03-30T11:12:06.680Z,16.95
2023-03-30T11:15:02.329Z,16.99
2023-03-30T11:17:43.688Z,17.33
2023-03-30T11:20:27.319Z,17.24
2023-03-30T11:23:12.705Z,16.96
2023-03-30T11:25:54.666Z,16.45
2023-03-30T11:28:39.553Z,15.94
2023-03-30T11:31:26.505Z,15.15
2023-03-30T11:34:14.497Z,14.60
2023-03-30T11:36:49.541Z,14.33
2023-03-30T11:39:31.790Z,13.95
2023-03-30T11:42:08.301Z,13.73
2023-03-30T11:44:34.927Z,13.66
2023-03-30T11:47:30.657Z,13.60
2023-03-30T11:50:44.006Z,13.45
2023-03-30T11:53:31.187Z,13.24
2023-03-30T11:56:26.070Z,13.12
2023-03-30T11:59:04.787Z,13.04
2023-03-30T12:02:05.288Z,13.15
2023-03-30T12:04:55.799Z,13.22
2023-03-30T12:07:45.195Z,13.23
2023-03-30T12:10:21.197Z,13.17
2023-03-30T12:12:51.860Z,13.10
2023-03-30T12:15:36.348Z,13.07
2023-03-30T12:18:17.628Z,13.03
2023-03-30T12:20:53.370Z,12.98
2023-03-30T12:23:48.382Z,13.01
2023-03-30T12:26:30.006Z,13.03
2023-03-30T12:32:02.328Z,13.11
2023-03-30T12:34:34.328Z,13.27
2023-03-30T12:37:14.360Z,13.36
2023-03-30T12:39:45.061Z,13.46
2023-03-30T12:42:34.318Z,13.58
2023-03-30T12:45:26.918Z,13.63
2023-03-30T12:48:14.568Z,13.56
2023-03-30T12:50:54.934Z,13.48
2023-03-30T12:53:55.192Z,13.40
2023-03-30T12:56:40.626Z,13.32
2023-03-30T12:59:19.096Z,13.26
2023-03-30T13:02:24.543Z,13.27
2023-03-30T13:04:51.263Z,13.35
2023-03-30T13:07:23.495Z,13.55
2023-03-30T13:09:55.112Z,13.75
2023-03-30T13:12:27.688Z,13.93
2023-03-30T13:15:23.396Z,14.17
2023-03-30T13:18:03.379Z,14.17
2023-03-30T13:20:56.818Z,14.22
2023-03-30T13:23:23.377Z,14.23
2023-03-30T13:26:32.359Z,14.21
2023-03-30T13:29:07.905Z,14.15
2023-03-30T13:31:34.327Z,14.14
2023-03-30T13:34:14.584Z,14.24
2023-03-30T13:37:08.842Z,14.44
2023-03-30T13:40:01.682Z,14.40
2023-03-30T13:42:35.184Z,14.44
2023-03-30T13:45:19.726Z,14.46
2023-03-30T13:47:48.938Z,14.54
2023-03-30T13:50:27.426Z,14.47
2023-03-30T13:52:55.997Z,14.44
2023-03-30T13:55:33.620Z,14.52
2023-03-30T13:58:27.860Z,14.47
2023-03-30T14:01:07.476Z,14.45
2023-03-30T14:03:49.112Z,14.56
2023-03-30T14:06:20.998Z,14.67
2023-03-30T14:08:49.350Z,14.78
2023-03-30T14:11:22.290Z,14.76
2023-03-30T14:13:52.316Z,14.67
2023-03-30T14:16:27.732Z,14.58
2023-03-30T14:19:09.052Z,14.58
2023-03-30T14:21:37.028Z,14.52
2023-03-30T14:24:04.659Z,14.57
2023-03-30T14:26:31.613Z,14.55
2023-03-30T14:29:05.382Z,14.56
2023-03-30T14:31:40.421Z,14.66
2023-03-30T14:34:26.608Z,14.74
2023-03-30T14:37:00.467Z,14.78
2023-03-30T14:39:29.540Z,14.75
2023-03-30T14:41:56.570Z,14.75
2023-03-30T14:44:24.179Z,14.79
2023-03-30T14:46:55.436Z,14.92
2023-03-30T14:49:29.036Z,14.89
2023-03-30T14:52:07.932Z,14.73
2023-03-30T14:54:36.291Z,14.61
2023-03-30T14:57:06.286Z,14.63
2023-03-30T14:59:40.085Z,14.64
2023-03-30T15:02:18.062Z,14.63
2023-03-30T15:04:44.713Z,14.71
2023-03-30T15:07:16.208Z,14.67
2023-03-30T15:09:46.184Z,14.54
2023-03-30T15:12:22.861Z,14.45
2023-03-30T15:14:50.554Z,14.25
2023-03-30T15:17:21.837Z,13.50
2023-03-30T15:19:54.410Z,13.12
2023-03-30T15:22:33.977Z,12.92
2023-03-30T15:25:07.681Z,12.94
2023-03-30T15:27:37.181Z,12.92
2023-03-30T15:30:04.914Z,12.88
2023-03-30T15:32:38.778Z,12.82
2023-03-30T15:35:14.147Z,12.82
2023-03-30T15:37:53.844Z,12.71
2023-03-30T15:40:31.390Z,12.71
2023-03-30T15:43:19.366Z,12.71
2023-03-30T15:45:51.191Z,12.71
2023-03-30T15:48:21.743Z,12.83
2023-03-30T15:50:53.721Z,12.86
2023-03-30T15:53:29.154Z,12.83
2023-03-30T15:55:56.261Z,12.85
2023-03-30T15:58:27.946Z,12.87
2023-03-30T16:00:56.107Z,12.97
2023-03-30T16:03:40.250Z,12.87
2023-03-30T16:06:11.929Z,12.80
2023-03-30T16:08:42.645Z,12.73
2023-03-30T16:11:09.721Z,12.66
2023-03-30T16:13:46.452Z,12.57
2023-03-30T16:16:14.727Z,12.46
2023-03-30T16:18:42.714Z,12.37
2023-03-30T16:21:10.904Z,12.32
2023-03-30T16:23:38.319Z,12.27
2023-03-30T16:26:06.057Z,12.30
2023-03-30T16:28:35.738Z,12.36
2023-03-30T16:31:07.803Z,12.33
2023-03-30T16:33:34.303Z,12.26
2023-03-30T16:36:01.129Z,12.19
2023-03-30T16:38:27.690Z,12.15
2023-03-30T16:40:57.562Z,12.09
2023-03-30T16:43:25.055Z,12.03
2023-03-30T16:45:51.721Z,12.06
2023-03-30T16:48:18.257Z,12.09
2023-03-30T16:50:53.215Z,12.16
2023-03-30T16:53:20.021Z,12.12
2023-03-30T16:55:46.787Z,12.08
2023-03-30T16:58:14.922Z,12.03
2023-03-30T17:00:42.637Z,12.00
2023-03-30T17:03:09.415Z,12.03
2023-03-30T17:05:36.186Z,11.98
2023-03-30T17:08:14.260Z,11.97
2023-03-30T17:10:41.234Z,11.99
2023-03-30T17:13:08.245Z,12.01
2023-03-30T17:15:39.094Z,12.04
2023-03-30T17:18:09.867Z,11.99
2023-03-30T17:20:40.146Z,11.94
2023-03-30T17:23:10.107Z,11.90
2023-03-30T17:25:39.810Z,11.88
2023-03-30T17:28:09.725Z,11.85
2023-03-30T17:30:41.926Z,11.84
2023-03-30T17:33:10.836Z,11.84
2023-03-30T17:35:40.347Z,11.81
2023-03-30T17:38:09.216Z,11.84
2023-03-30T17:40:39.872Z,11.88
2023-03-30T17:43:07.301Z,11.87
2023-03-30T17:45:35.168Z,11.88
2023-03-30T17:48:03.548Z,11.90
2023-03-30T17:50:33.603Z,11.90
2023-03-30T17:53:00.701Z,11.91
2023-03-30T17:55:31.288Z,11.89
2023-03-30T17:57:58.793Z,11.90
2023-03-30T18:00:29.925Z,11.92
2023-03-30T18:02:57.081Z,11.90
2023-03-30T18:05:29.438Z,11.87
2023-03-30T18:07:56.052Z,11.84
2023-03-30T18:10:36.940Z,11.85
2023-03-30T18:13:04.623Z,11.82
2023-03-30T18:15:32.101Z,11.81
2023-03-30T18:18:00.404Z,11.79
2023-03-30T18:20:47.160Z,11.83
2023-03-30T18:23:13.620Z,11.86
2023-03-30T18:25:40.253Z,11.87
2023-03-30T18:28:15.350Z,11.80
2023-03-30T18:30:42.082Z,11.80
2023-03-30T18:33:08.576Z,11.86
2023-03-30T18:35:36.633Z,11.87
2023-03-30T18:38:07.731Z,11.91
2023-03-30T18:40:37.670Z,11.91
2023-03-30T18:43:05.036Z,11.88
2023-03-30T18:45:34.307Z,11.81
2023-03-30T18:48:02.111Z,11.80
2023-03-30T18:50:28.556Z,11.86
2023-03-30T18:52:55.320Z,11.87
2023-03-30T18:55:21.887Z,11.85
2023-03-30T18:57:48.404Z,11.78
2023-03-30T19:00:23.142Z,11.74
2023-03-30T19:02:50.704Z,11.75
2023-03-30T19:05:19.173Z,11.72
2023-03-30T19:07:45.956Z,11.73
2023-03-30T19:10:26.537Z,11.66
2023-03-30T19:12:57.366Z,11.58
2023-03-30T19:15:29.763Z,11.52
2023-03-30T19:17:56.880Z,11.50
2023-03-30T19:20:25.801Z,11.50
2023-03-30T19:22:52.822Z,11.47
2023-03-30T19:25:24.620Z,11.42
2023-03-30T19:28:03.070Z,11.36
2023-03-30T19:30:32.502Z,11.32
2023-03-30T19:33:02.142Z,11.37
2023-03-30T19:35:29.540Z,11.39
2023-03-30T19:37:56.480Z,11.35
2023-03-30T19:40:23.968Z,11.34
2023-03-30T19:42:51.356Z,11.25
2023-03-30T19:45:20.670Z,11.25
2023-03-30T19:47:47.482Z,11.19
2023-03-30T19:50:17.962Z,11.17
2023-03-30T19:52:48.571Z,11.14
2023-03-30T19:55:16.325Z,11.09
2023-03-30T19:57:42.907Z,11.12
2023-03-30T20:00:15.640Z,11.13
2023-03-30T20:02:45.097Z,11.18
2023-03-30T20:05:15.693Z,11.21
2023-03-30T20:07:44.523Z,11.24
2023-03-30T20:10:23.232Z,11.23
2023-03-30T20:12:54.714Z,11.23
2023-03-30T20:15:25.674Z,11.27
2023-03-30T20:17:56.690Z,11.24
2023-03-30T20:20:25.300Z,11.23
2023-03-30T20:22:56.892Z,11.23
2023-03-30T20:25:23.957Z,11.20
2023-03-30T20:27:51.920Z,11.24
2023-03-30T20:30:19.046Z,11.35
2023-03-30T20:32:55.928Z,11.42
2023-03-30T20:35:31.914Z,11.46
2023-03-30T20:37:58.549Z,11.46
2023-03-30T20:40:25.063Z,11.45
2023-03-30T20:42:51.779Z,11.42
2023-03-30T20:45:25.952Z,11.43
2023-03-30T20:47:53.804Z,11.42
2023-03-30T20:50:20.609Z,11.40
2023-03-30T20:52:47.105Z,11.39
2023-03-30T20:55:13.765Z,11.36
2023-03-30T20:57:40.229Z,11.36
2023-03-30T21:00:07.457Z,11.30
2023-03-30T21:02:34.578Z,11.29
2023-03-30T21:05:01.278Z,11.32
2023-03-30T21:07:31.086Z,11.26
2023-03-30T21:09:58.908Z,11.24
2023-03-30T21:12:28.564Z,11.26
2023-03-30T21:14:57.711Z,11.27
2023-03-30T21:17:27.098Z,11.27
2023-03-30T21:19:53.666Z,11.21
2023-03-30T21:22:20.103Z,11.18
2023-03-30T21:24:46.573Z,11.17
2023-03-30T21:27:14.331Z,11.13
2023-03-30T21:29:43.644Z,11.16
2023-03-30T21:32:16.378Z,11.15
2023-03-30T21:34:42.916Z,11.12
2023-03-30T21:37:12.905Z,11.07
2023-03-30T21:39:39.526Z,11.09
2023-03-30T21:42:06.144Z,11.13
2023-03-30T21:44:35.990Z,11.12
2023-03-30T21:47:02.562Z,11.12
2023-03-30T21:49:37.142Z,11.15
2023-03-30T21:52:03.992Z,11.10
2023-03-30T21:54:30.689Z,11.09
2023-03-30T21:56:57.183Z,11.15
2023-03-30T21:59:23.650Z,11.15
2023-03-30T22:01:50.334Z,11.19
2023-03-30T22:04:16.814Z,11.20
2023-03-30T22:06:43.568Z,11.21
2023-03-30T22:09:10.052Z,11.15
2023-03-30T22:11:36.531Z,11.11
2023-03-30T22:14:06.557Z,11.10
2023-03-30T22:16:33.364Z,11.11
2023-03-30T22:18:59.915Z,11.10
2023-03-30T22:21:34.207Z,11.13
2023-03-30T22:24:02.926Z,11.14
2023-03-30T22:26:29.487Z,11.14
2023-03-30T22:28:58.520Z,11.15
2023-03-30T22:31:29.803Z,11.17
2023-03-30T22:33:56.818Z,11.17
2023-03-30T22:36:33.022Z,11.15
2023-03-30T22:39:01.219Z,11.16
2023-03-30T22:41:28.179Z,11.19
2023-03-30T22:43:56.699Z,11.21
2023-03-30T22:46:25.240Z,11.26
2023-03-30T22:48:52.484Z,11.25
2023-03-30T22:51:28.334Z,11.23
2023-03-30T22:54:02.367Z,11.27
2023-03-30T22:56:29.962Z,11.27
2023-03-30T22:58:56.980Z,11.30
2023-03-30T23:01:29.096Z,11.35
2023-03-30T23:03:55.911Z,11.35
2023-03-30T23:06:22.694Z,11.31
2023-03-30T23:08:49.310Z,11.28
2023-03-30T23:11:15.997Z,11.27
2023-03-30T23:13:42.466Z,11.28
2023-03-30T23:16:09.172Z,11.33
2023-03-30T23:18:36.590Z,11.32
2023-03-30T23:21:07.193Z,11.29
2023-03-30T23:23:41.811Z,11.31
2023-03-30T23:26:15.820Z,11.28
2023-03-30T23:28:42.587Z,11.27
2023-03-30T23:31:14.213Z,11.26
2023-03-30T23:33:41.783Z,11.27
2023-03-30T23:36:09.449Z,11.25
2023-03-30T23:38:39.065Z,11.26
2023-03-30T23:41:06.290Z,11.29
2023-03-30T23:43:32.892Z,11.24
2023-03-30T23:45:59.406Z,11.22
2023-03-30T23:48:27.071Z,11.22
2023-03-30T23:50:53.577Z,11.24
2023-03-30T23:53:20.052Z,11.22
2023-03-30T23:55:50.096Z,11.18
2023-03-30T23:58:18.160Z,11.16
